Etusivu
METAR-TAF:

METAR-TAF

Lentoasemat :

Mitiga International Airport

Tripoli, Libya

Leveyspiiri: 32-54N, Pituuspiiri: 13-17E, korkeus merenpinnasta: 11 m

Tämänhetkinen sää

Tämä raportti tehtiin 43 minuuttia sitten, kello 13.50 UTC
Tuuli 13 kn idästä
Lämpötila 27°C
Kosteus 58%
Ilmanpaine 1014 hPa
Näkyvyys: 8000 m

METAR: HLLM 161350Z 08013KT 8000 NSC 27/18 Q1014

Aika: 16:33 (14:33 UTC)

Sääennuste

Tämä raportti tehtiin 3 tuntia ja 33 minuuttia sitten, kello 11.00 UTC
Ennuste voimassa 16. päivästä klo 12 UTC - 17. päivään klo 12 UTC
Tuuli 12 kn idästä/kaakosta
Näkyvyys: 8000 m

TAF: HLLM 161100Z 1612/1712 06012KT 8000 NSC BECMG1702/1704 12012KT

Säähavainnot ja -ennusteet yli 4000 lentoasemalta (METAR- ja TAF-raportit).

Käytössä olevat sääasemat on merkitty karttaan keltaisilla ja punaisilla pisteillä.

Aseta hiiri pisteen päälle nähdäksesi sääaseman nimen.

Klikkaa sitten nähdäksesi säähavainnot ja -ennusteet.

Kartan vaihtaminen: klikkaa mustalla rastilla varustettuja vihreitä pisteitä, niin voit zoomata sisään; viivalla varustettua vihreää pistettä, niin voit zoomata ulos tai vihreitä nuolia, niin pääset viereisille kartoille.


METAR-TAF: